Annette Island, AK

7:42 PM AKDT on July 29, 2014 (GMT -0800)
Metlakatla (PAMM) Elev 0 ft | 55.13 °N, 131.58 °W | Change Station

Current weather conditions updated 1 hour ago

Overcast
Overcast
55 °F
Feels Like 55 °F
N
4
Wind Variable Wind from SE

Tomorrow is forecast to be nearly the same temperature as today.

Today
High -- | Low -- °F
--% Chance of Precip.
Yesterday
High -- | Low -- °F
Precip. -- in
4:50 AM 8:54 PM
Waxing Crescent, 9% visible
Pressure 30.18 in
Visibility 7.0 miles
Clouds Mostly Cloudy 1900 ft
Overcast 2800 ft
Dew Point 52 °F
Humidity 88%
Rainfall 0.86 in
Snow Depth Not available.
UV 0 out of 12
Pollen Not available.
Air Quality Not available.
Flu Activity Not available.
METAR PAMM 300236Z AUTO 13003KT 7SM BKN019 OVC028 13/11 A3018 RMK AO1

More Conditions Fewer Conditions

Pressure 30.18 in
Visibility 7.0 miles
Clouds Mostly Cloudy 1900 ft
Overcast 2800 ft
Dew Point 52 °F
Humidity 88%
Rainfall 0.86 in
Snow Depth Not available.
UV 0 out of 12
Pollen Not available.
Air Quality Not available.
Flu Activity Not available.
METAR PAMM 300236Z AUTO 13003KT 7SM BKN019 OVC028 13/11 A3018 RMK AO1

More Conditions Fewer Conditions

10-Day Weather Forecast

Almanac

Astronomy

Jul. 29, 2014 Rise Set
Actual Time 4:50 AM AKDT 8:54 PM AKDT
Civil Twilight 4:02 AM AKDT 9:41 PM AKDT
Nautical Twilight 2:52 AM AKDT 10:50 PM AKDT
Astronomical Twilight 1:25 AM AKDT 12:20 AM AKDT
Moon 8:10 AM AKDT (7/29) 9:28 PM AKDT (7/29)
Length of Visible Light 17h 38m
Length of Day
16h 04m
Tomorrow will be 3m 36s shorter.
Waxing Crescent, 9% of the Moon is Illuminated
Today
Waxing Crescent
Aug 3
First Quarter
Aug 10
Full
Aug 17
Last Quarter
Aug 25
New

Today's Extremes

State Highs State Lows

Community

WunderPhotos

Upload Photos

1,738,991 photos uploaded!

WunderBlogs® & News

Nearby

Snow Depth

Station Depth Elevation
Long Lake 0 in 820 ft
Upper Tsaina River 0 in 1750 ft
Grandview 1 in 1100 ft
Turnagain Pass 0 in 1880 ft
Cooper Lake 20 in 1200 ft

Earthquake Activity

City Distance Mag. Time & Date
No recent earthquake activity has been reported nearby.
Minimum magnitude displayed is 2.5.

Coastal Water Temperatures

Place Temperature
No Stations Reporting

Nearby Weather Stations

Station Location Temp. Dew Point Humidity Wind Precip. Elev Updated Type
CRN NOAA/NWS ANNETTE ISLAND 6 S AK , Metlakatla, AK 56 °F - - North  at  - 0.00 in / hr 104 ft 6:30 PM AKDT MADIS
Bailey Blvd, Ketchikan, AK 55.0 °F 54 °F 96% ESE  at  1.0 mph 0.14 in / hr 240 ft 7:40 PM AKDT Normal

Show More Stations Show Fewer Stations